sensor_id;sensor_type;location;lat;lon;timestamp;P1;durP1;ratioP1;P2;durP2;ratioP2
25503;SDS011;13410;52.114;5.718;2022-12-18T00:01:28;81.80;;;30.55;;
25503;SDS011;13410;52.114;5.718;2022-12-18T00:03:56;74.80;;;28.35;;
25503;SDS011;13410;52.114;5.718;2022-12-18T00:06:22;77.55;;;30.33;;
25503;SDS011;13410;52.114;5.718;2022-12-18T00:08:50;80.85;;;33.30;;
25503;SDS011;13410;52.114;5.718;2022-12-18T00:11:20;73.97;;;30.45;;
25503;SDS011;13410;52.114;5.718;2022-12-18T00:13:47;77.35;;;31.20;;
25503;SDS011;13410;52.114;5.718;2022-12-18T00:16:16;82.38;;;34.30;;
25503;SDS011;13410;52.114;5.718;2022-12-18T00:18:46;75.70;;;31.85;;
25503;SDS011;13410;52.114;5.718;2022-12-18T00:21:14;78.18;;;30.17;;
25503;SDS011;13410;52.114;5.718;2022-12-18T00:23:42;76.65;;;30.27;;
25503;SDS011;13410;52.114;5.718;2022-12-18T00:26:15;77.93;;;31.92;;
25503;SDS011;13410;52.114;5.718;2022-12-18T00:28:46;70.78;;;28.42;;
25503;SDS011;13410;52.114;5.718;2022-12-18T00:31:14;75.90;;;27.60;;
25503;SDS011;13410;52.114;5.718;2022-12-18T00:33:41;75.25;;;28.25;;
25503;SDS011;13410;52.114;5.718;2022-12-18T00:36:08;72.10;;;28.40;;
25503;SDS011;13410;52.114;5.718;2022-12-18T00:38:36;73.30;;;29.95;;
25503;SDS011;13410;52.114;5.718;2022-12-18T00:41:06;75.88;;;31.85;;
25503;SDS011;13410;52.114;5.718;2022-12-18T00:43:35;98.55;;;39.15;;
25503;SDS011;13410;52.114;5.718;2022-12-18T00:46:01;83.68;;;34.13;;
25503;SDS011;13410;52.114;5.718;2022-12-18T00:48:26;79.05;;;32.97;;
25503;SDS011;13410;52.114;5.718;2022-12-18T00:50:52;77.90;;;33.10;;
25503;SDS011;13410;52.114;5.718;2022-12-18T00:53:18;79.72;;;33.13;;
25503;SDS011;13410;52.114;5.718;2022-12-18T00:55:43;77.65;;;32.08;;
25503;SDS011;13410;52.114;5.718;2022-12-18T00:58:10;79.30;;;33.40;;
25503;SDS011;13410;52.114;5.718;2022-12-18T01:00:36;78.43;;;32.17;;
25503;SDS011;13410;52.114;5.718;2022-12-18T01:03:03;79.35;;;32.47;;
25503;SDS011;13410;52.114;5.718;2022-12-18T01:05:28;80.88;;;33.08;;
25503;SDS011;13410;52.114;5.718;2022-12-18T01:07:54;74.68;;;31.48;;
25503;SDS011;13410;52.114;5.718;2022-12-18T01:10:21;72.82;;;31.23;;
25503;SDS011;13410;52.114;5.718;2022-12-18T01:12:46;77.85;;;32.47;;
25503;SDS011;13410;52.114;5.718;2022-12-18T01:15:12;78.68;;;32.10;;
25503;SDS011;13410;52.114;5.718;2022-12-18T01:17:38;80.68;;;31.30;;
25503;SDS011;13410;52.114;5.718;2022-12-18T01:20:04;77.53;;;32.47;;
25503;SDS011;13410;52.114;5.718;2022-12-18T01:22:30;80.07;;;32.83;;
25503;SDS011;13410;52.114;5.718;2022-12-18T01:24:59;78.93;;;32.40;;
25503;SDS011;13410;52.114;5.718;2022-12-18T01:27:25;74.03;;;31.23;;
25503;SDS011;13410;52.114;5.718;2022-12-18T01:29:50;81.40;;;32.15;;
25503;SDS011;13410;52.114;5.718;2022-12-18T01:32:16;78.38;;;31.77;;
25503;SDS011;13410;52.114;5.718;2022-12-18T01:34:42;75.65;;;30.77;;
25503;SDS011;13410;52.114;5.718;2022-12-18T01:37:07;83.13;;;35.55;;
25503;SDS011;13410;52.114;5.718;2022-12-18T01:39:33;78.07;;;32.13;;
25503;SDS011;13410;52.114;5.718;2022-12-18T01:41:59;76.78;;;31.48;;
25503;SDS011;13410;52.114;5.718;2022-12-18T01:47:30;80.80;;;35.45;;
25503;SDS011;13410;52.114;5.718;2022-12-18T01:50:01;73.30;;;31.15;;
25503;SDS011;13410;52.114;5.718;2022-12-18T01:52:42;76.85;;;32.25;;
25503;SDS011;13410;52.114;5.718;2022-12-18T01:55:10;67.32;;;29.52;;
25503;SDS011;13410;52.114;5.718;2022-12-18T01:57:37;71.53;;;29.75;;
25503;SDS011;13410;52.114;5.718;2022-12-18T02:00:05;75.85;;;31.25;;
25503;SDS011;13410;52.114;5.718;2022-12-18T02:02:35;72.57;;;30.33;;
25503;SDS011;13410;52.114;5.718;2022-12-18T02:05:01;73.22;;;28.77;;
25503;SDS011;13410;52.114;5.718;2022-12-18T02:13:19;67.82;;;29.55;;
25503;SDS011;13410;52.114;5.718;2022-12-18T02:18:28;62.65;;;28.25;;
25503;SDS011;13410;52.114;5.718;2022-12-18T02:21:04;69.45;;;28.35;;
25503;SDS011;13410;52.114;5.718;2022-12-18T02:24:13;72.25;;;29.90;;
25503;SDS011;13410;52.114;5.718;2022-12-18T02:26:37;63.40;;;28.17;;
25503;SDS011;13410;52.114;5.718;2022-12-18T02:29:10;70.40;;;29.13;;
25503;SDS011;13410;52.114;5.718;2022-12-18T02:31:42;63.65;;;27.73;;
25503;SDS011;13410;52.114;5.718;2022-12-18T02:34:11;62.95;;;28.15;;
25503;SDS011;13410;52.114;5.718;2022-12-18T02:36:39;64.70;;;27.77;;
25503;SDS011;13410;52.114;5.718;2022-12-18T02:39:07;61.17;;;27.48;;
25503;SDS011;13410;52.114;5.718;2022-12-18T02:41:35;62.10;;;28.13;;
25503;SDS011;13410;52.114;5.718;2022-12-18T02:44:06;63.55;;;27.08;;
25503;SDS011;13410;52.114;5.718;2022-12-18T02:46:37;63.47;;;28.42;;
25503;SDS011;13410;52.114;5.718;2022-12-18T02:49:20;62.30;;;26.50;;
25503;SDS011;13410;52.114;5.718;2022-12-18T02:51:50;62.35;;;26.73;;
25503;SDS011;13410;52.114;5.718;2022-12-18T03:00:23;86.93;;;38.47;;
25503;SDS011;13410;52.114;5.718;2022-12-18T03:02:55;131.80;;;61.40;;
25503;SDS011;13410;52.114;5.718;2022-12-18T03:05:36;121.53;;;60.70;;
25503;SDS011;13410;52.114;5.718;2022-12-18T03:08:11;108.15;;;51.72;;
25503;SDS011;13410;52.114;5.718;2022-12-18T03:10:44;89.60;;;44.75;;
25503;SDS011;13410;52.114;5.718;2022-12-18T03:13:17;102.13;;;48.97;;
25503;SDS011;13410;52.114;5.718;2022-12-18T03:15:53;92.60;;;46.40;;
25503;SDS011;13410;52.114;5.718;2022-12-18T03:18:38;76.25;;;37.97;;
25503;SDS011;13410;52.114;5.718;2022-12-18T03:21:12;78.20;;;38.10;;
25503;SDS011;13410;52.114;5.718;2022-12-18T03:23:40;63.70;;;30.98;;
25503;SDS011;13410;52.114;5.718;2022-12-18T03:26:10;61.40;;;28.48;;
25503;SDS011;13410;52.114;5.718;2022-12-18T03:28:41;70.80;;;33.80;;
25503;SDS011;13410;52.114;5.718;2022-12-18T03:31:11;60.58;;;29.55;;
25503;SDS011;13410;52.114;5.718;2022-12-18T03:33:41;70.63;;;34.67;;
25503;SDS011;13410;52.114;5.718;2022-12-18T03:36:23;70.38;;;33.08;;
25503;SDS011;13410;52.114;5.718;2022-12-18T03:38:49;60.50;;;29.83;;
25503;SDS011;13410;52.114;5.718;2022-12-18T03:41:28;65.28;;;32.78;;
25503;SDS011;13410;52.114;5.718;2022-12-18T03:44:14;63.83;;;31.35;;
25503;SDS011;13410;52.114;5.718;2022-12-18T03:49:25;59.03;;;27.83;;
25503;SDS011;13410;52.114;5.718;2022-12-18T03:52:03;55.95;;;25.10;;
25503;SDS011;13410;52.114;5.718;2022-12-18T03:54:36;56.88;;;26.92;;
25503;SDS011;13410;52.114;5.718;2022-12-18T03:57:09;50.92;;;24.75;;
25503;SDS011;13410;52.114;5.718;2022-12-18T03:59:39;49.47;;;24.02;;
25503;SDS011;13410;52.114;5.718;2022-12-18T04:02:06;51.55;;;23.48;;
25503;SDS011;13410;52.114;5.718;2022-12-18T04:04:34;50.50;;;23.15;;
25503;SDS011;13410;52.114;5.718;2022-12-18T04:07:02;52.78;;;23.13;;
25503;SDS011;13410;52.114;5.718;2022-12-18T04:09:29;46.13;;;23.05;;
25503;SDS011;13410;52.114;5.718;2022-12-18T04:11:56;50.00;;;24.73;;
25503;SDS011;13410;52.114;5.718;2022-12-18T04:14:23;54.10;;;25.30;;
25503;SDS011;13410;52.114;5.718;2022-12-18T04:16:49;47.63;;;23.27;;
25503;SDS011;13410;52.114;5.718;2022-12-18T04:19:16;46.92;;;21.77;;
25503;SDS011;13410;52.114;5.718;2022-12-18T04:21:41;46.83;;;23.10;;
25503;SDS011;13410;52.114;5.718;2022-12-18T04:24:07;52.95;;;23.92;;
25503;SDS011;13410;52.114;5.718;2022-12-18T04:26:33;47.35;;;22.13;;
25503;SDS011;13410;52.114;5.718;2022-12-18T04:28:59;47.25;;;22.50;;
25503;SDS011;13410;52.114;5.718;2022-12-18T04:31:24;45.05;;;21.80;;
25503;SDS011;13410;52.114;5.718;2022-12-18T04:33:50;52.53;;;23.70;;
25503;SDS011;13410;52.114;5.718;2022-12-18T04:36:16;46.22;;;22.23;;
25503;SDS011;13410;52.114;5.718;2022-12-18T04:38:41;42.38;;;20.30;;
25503;SDS011;13410;52.114;5.718;2022-12-18T04:41:07;42.13;;;20.90;;
25503;SDS011;13410;52.114;5.718;2022-12-18T04:43:33;44.40;;;21.48;;
25503;SDS011;13410;52.114;5.718;2022-12-18T04:46:02;42.47;;;20.60;;
25503;SDS011;13410;52.114;5.718;2022-12-18T04:48:31;43.33;;;21.00;;
25503;SDS011;13410;52.114;5.718;2022-12-18T04:50:58;40.65;;;20.48;;
25503;SDS011;13410;52.114;5.718;2022-12-18T04:53:24;39.85;;;20.00;;
25503;SDS011;13410;52.114;5.718;2022-12-18T04:55:50;41.25;;;20.25;;
25503;SDS011;13410;52.114;5.718;2022-12-18T04:58:26;40.72;;;20.67;;
25503;SDS011;13410;52.114;5.718;2022-12-18T05:00:52;40.80;;;20.45;;
25503;SDS011;13410;52.114;5.718;2022-12-18T05:03:17;37.58;;;19.17;;
25503;SDS011;13410;52.114;5.718;2022-12-18T05:05:43;39.78;;;19.27;;
25503;SDS011;13410;52.114;5.718;2022-12-18T05:08:08;37.17;;;17.90;;
25503;SDS011;13410;52.114;5.718;2022-12-18T05:10:34;40.08;;;18.65;;
25503;SDS011;13410;52.114;5.718;2022-12-18T05:12:59;38.80;;;18.85;;
25503;SDS011;13410;52.114;5.718;2022-12-18T05:15:26;36.67;;;18.27;;
25503;SDS011;13410;52.114;5.718;2022-12-18T05:17:57;37.03;;;17.20;;
25503;SDS011;13410;52.114;5.718;2022-12-18T05:20:23;35.65;;;18.00;;
25503;SDS011;13410;52.114;5.718;2022-12-18T05:22:50;36.15;;;18.45;;
25503;SDS011;13410;52.114;5.718;2022-12-18T05:25:16;36.00;;;17.30;;
25503;SDS011;13410;52.114;5.718;2022-12-18T05:27:41;38.10;;;17.55;;
25503;SDS011;13410;52.114;5.718;2022-12-18T05:30:07;32.70;;;17.33;;
25503;SDS011;13410;52.114;5.718;2022-12-18T05:32:34;35.17;;;17.52;;
25503;SDS011;13410;52.114;5.718;2022-12-18T05:34:59;33.85;;;16.42;;
25503;SDS011;13410;52.114;5.718;2022-12-18T05:37:25;33.58;;;16.77;;
25503;SDS011;13410;52.114;5.718;2022-12-18T05:39:51;33.90;;;17.33;;
25503;SDS011;13410;52.114;5.718;2022-12-18T05:42:16;34.58;;;17.23;;
25503;SDS011;13410;52.114;5.718;2022-12-18T05:44:43;37.22;;;17.42;;
25503;SDS011;13410;52.114;5.718;2022-12-18T05:47:08;36.55;;;17.95;;
25503;SDS011;13410;52.114;5.718;2022-12-18T05:49:34;33.95;;;17.50;;
25503;SDS011;13410;52.114;5.718;2022-12-18T05:51:59;36.05;;;18.08;;
25503;SDS011;13410;52.114;5.718;2022-12-18T05:54:27;33.53;;;17.05;;
25503;SDS011;13410;52.114;5.718;2022-12-18T05:56:53;36.78;;;18.65;;
25503;SDS011;13410;52.114;5.718;2022-12-18T05:59:19;36.00;;;17.02;;
25503;SDS011;13410;52.114;5.718;2022-12-18T06:01:45;33.95;;;16.80;;
25503;SDS011;13410;52.114;5.718;2022-12-18T06:04:11;32.75;;;17.00;;
25503;SDS011;13410;52.114;5.718;2022-12-18T06:06:36;32.92;;;16.42;;
25503;SDS011;13410;52.114;5.718;2022-12-18T06:09:02;30.80;;;16.20;;
25503;SDS011;13410;52.114;5.718;2022-12-18T06:11:33;33.90;;;16.98;;
25503;SDS011;13410;52.114;5.718;2022-12-18T06:13:59;34.38;;;17.73;;
25503;SDS011;13410;52.114;5.718;2022-12-18T06:16:26;32.95;;;17.10;;
25503;SDS011;13410;52.114;5.718;2022-12-18T06:18:53;31.15;;;16.42;;
25503;SDS011;13410;52.114;5.718;2022-12-18T06:21:26;34.22;;;16.88;;
25503;SDS011;13410;52.114;5.718;2022-12-18T06:23:52;37.33;;;18.95;;
25503;SDS011;13410;52.114;5.718;2022-12-18T06:26:18;33.42;;;16.83;;
25503;SDS011;13410;52.114;5.718;2022-12-18T06:28:44;33.97;;;16.67;;
25503;SDS011;13410;52.114;5.718;2022-12-18T06:31:09;33.53;;;16.35;;
25503;SDS011;13410;52.114;5.718;2022-12-18T06:33:36;36.58;;;20.10;;
25503;SDS011;13410;52.114;5.718;2022-12-18T06:36:03;34.85;;;18.88;;
25503;SDS011;13410;52.114;5.718;2022-12-18T06:38:31;36.80;;;18.15;;
25503;SDS011;13410;52.114;5.718;2022-12-18T06:40:57;33.10;;;18.05;;
25503;SDS011;13410;52.114;5.718;2022-12-18T06:43:24;31.92;;;17.50;;
25503;SDS011;13410;52.114;5.718;2022-12-18T06:45:50;34.33;;;16.63;;
25503;SDS011;13410;52.114;5.718;2022-12-18T06:48:20;35.53;;;18.00;;
25503;SDS011;13410;52.114;5.718;2022-12-18T06:50:46;34.20;;;17.20;;
25503;SDS011;13410;52.114;5.718;2022-12-18T06:53:12;34.58;;;17.63;;
25503;SDS011;13410;52.114;5.718;2022-12-18T06:55:38;31.73;;;16.17;;
25503;SDS011;13410;52.114;5.718;2022-12-18T06:58:04;33.00;;;17.02;;
25503;SDS011;13410;52.114;5.718;2022-12-18T07:00:29;32.78;;;17.50;;
25503;SDS011;13410;52.114;5.718;2022-12-18T07:02:55;32.20;;;16.52;;
25503;SDS011;13410;52.114;5.718;2022-12-18T07:05:22;31.25;;;16.88;;
25503;SDS011;13410;52.114;5.718;2022-12-18T07:07:47;32.83;;;16.55;;
25503;SDS011;13410;52.114;5.718;2022-12-18T07:10:13;34.53;;;17.95;;
25503;SDS011;13410;52.114;5.718;2022-12-18T07:12:38;38.17;;;17.65;;
25503;SDS011;13410;52.114;5.718;2022-12-18T07:15:04;32.42;;;16.77;;
25503;SDS011;13410;52.114;5.718;2022-12-18T07:17:31;33.75;;;16.77;;
25503;SDS011;13410;52.114;5.718;2022-12-18T07:19:57;32.22;;;17.08;;
25503;SDS011;13410;52.114;5.718;2022-12-18T07:22:23;35.13;;;17.05;;
25503;SDS011;13410;52.114;5.718;2022-12-18T07:24:50;34.50;;;17.63;;
25503;SDS011;13410;52.114;5.718;2022-12-18T07:27:15;34.17;;;16.92;;
25503;SDS011;13410;52.114;5.718;2022-12-18T07:29:41;32.35;;;17.95;;
25503;SDS011;13410;52.114;5.718;2022-12-18T07:32:07;33.72;;;16.45;;
25503;SDS011;13410;52.114;5.718;2022-12-18T07:34:33;36.17;;;17.77;;
25503;SDS011;13410;52.114;5.718;2022-12-18T07:36:58;31.45;;;16.98;;
25503;SDS011;13410;52.114;5.718;2022-12-18T07:39:24;31.88;;;16.85;;
25503;SDS011;13410;52.114;5.718;2022-12-18T07:41:50;36.03;;;17.70;;
25503;SDS011;13410;52.114;5.718;2022-12-18T07:44:34;31.75;;;17.35;;
25503;SDS011;13410;52.114;5.718;2022-12-18T07:47:00;33.80;;;16.80;;
25503;SDS011;13410;52.114;5.718;2022-12-18T07:49:25;29.48;;;17.00;;
25503;SDS011;13410;52.114;5.718;2022-12-18T07:51:51;32.85;;;16.60;;
25503;SDS011;13410;52.114;5.718;2022-12-18T07:54:22;32.67;;;15.60;;
25503;SDS011;13410;52.114;5.718;2022-12-18T07:56:48;30.75;;;16.13;;
25503;SDS011;13410;52.114;5.718;2022-12-18T07:59:14;32.10;;;16.00;;
25503;SDS011;13410;52.114;5.718;2022-12-18T08:01:39;34.20;;;17.05;;
25503;SDS011;13410;52.114;5.718;2022-12-18T08:04:05;39.92;;;17.73;;
25503;SDS011;13410;52.114;5.718;2022-12-18T08:06:31;36.03;;;17.65;;
25503;SDS011;13410;52.114;5.718;2022-12-18T08:08:56;42.78;;;19.33;;
25503;SDS011;13410;52.114;5.718;2022-12-18T08:11:23;40.05;;;20.05;;
25503;SDS011;13410;52.114;5.718;2022-12-18T08:13:51;32.55;;;17.50;;
25503;SDS011;13410;52.114;5.718;2022-12-18T08:16:17;32.92;;;16.98;;
25503;SDS011;13410;52.114;5.718;2022-12-18T08:18:42;32.53;;;17.05;;
25503;SDS011;13410;52.114;5.718;2022-12-18T08:21:10;34.40;;;16.67;;
25503;SDS011;13410;52.114;5.718;2022-12-18T08:23:37;36.28;;;19.08;;
25503;SDS011;13410;52.114;5.718;2022-12-18T08:26:03;29.88;;;16.05;;
25503;SDS011;13410;52.114;5.718;2022-12-18T08:28:29;35.90;;;19.00;;
25503;SDS011;13410;52.114;5.718;2022-12-18T08:30:54;36.85;;;18.50;;
25503;SDS011;13410;52.114;5.718;2022-12-18T08:33:20;36.28;;;20.08;;
25503;SDS011;13410;52.114;5.718;2022-12-18T08:35:45;31.08;;;16.80;;
25503;SDS011;13410;52.114;5.718;2022-12-18T08:38:11;36.88;;;19.27;;
25503;SDS011;13410;52.114;5.718;2022-12-18T08:40:36;69.20;;;35.38;;
25503;SDS011;13410;52.114;5.718;2022-12-18T08:43:02;39.88;;;19.15;;
25503;SDS011;13410;52.114;5.718;2022-12-18T08:45:46;34.83;;;17.60;;
25503;SDS011;13410;52.114;5.718;2022-12-18T08:48:11;46.65;;;21.98;;
25503;SDS011;13410;52.114;5.718;2022-12-18T08:50:37;28.80;;;14.38;;
25503;SDS011;13410;52.114;5.718;2022-12-18T08:53:03;39.85;;;20.23;;
25503;SDS011;13410;52.114;5.718;2022-12-18T08:55:28;31.77;;;16.17;;
25503;SDS011;13410;52.114;5.718;2022-12-18T08:57:54;27.30;;;14.05;;
25503;SDS011;13410;52.114;5.718;2022-12-18T09:00:20;38.20;;;17.77;;
25503;SDS011;13410;52.114;5.718;2022-12-18T09:02:45;43.75;;;19.10;;
25503;SDS011;13410;52.114;5.718;2022-12-18T09:05:11;32.55;;;16.27;;
25503;SDS011;13410;52.114;5.718;2022-12-18T09:07:36;28.00;;;14.20;;
25503;SDS011;13410;52.114;5.718;2022-12-18T09:10:02;38.08;;;16.42;;
25503;SDS011;13410;52.114;5.718;2022-12-18T09:12:28;29.70;;;14.07;;
25503;SDS011;13410;52.114;5.718;2022-12-18T09:14:54;29.63;;;13.93;;
25503;SDS011;13410;52.114;5.718;2022-12-18T09:17:21;24.90;;;12.38;;
25503;SDS011;13410;52.114;5.718;2022-12-18T09:19:48;39.85;;;20.23;;
25503;SDS011;13410;52.114;5.718;2022-12-18T09:22:14;67.95;;;34.70;;
25503;SDS011;13410;52.114;5.718;2022-12-18T09:24:39;75.85;;;38.90;;
25503;SDS011;13410;52.114;5.718;2022-12-18T09:27:05;66.47;;;31.80;;
25503;SDS011;13410;52.114;5.718;2022-12-18T09:29:31;50.88;;;22.45;;
25503;SDS011;13410;52.114;5.718;2022-12-18T09:31:57;66.10;;;32.17;;
25503;SDS011;13410;52.114;5.718;2022-12-18T09:34:23;88.47;;;41.65;;
25503;SDS011;13410;52.114;5.718;2022-12-18T09:36:48;67.15;;;32.35;;
25503;SDS011;13410;52.114;5.718;2022-12-18T09:39:14;50.67;;;21.50;;
25503;SDS011;13410;52.114;5.718;2022-12-18T09:41:47;48.58;;;20.20;;
25503;SDS011;13410;52.114;5.718;2022-12-18T09:49:52;18.85;;;9.98;;
25503;SDS011;13410;52.114;5.718;2022-12-18T09:52:31;19.77;;;10.20;;
25503;SDS011;13410;52.114;5.718;2022-12-18T09:57:29;24.52;;;13.65;;
25503;SDS011;13410;52.114;5.718;2022-12-18T09:59:59;20.50;;;10.88;;
25503;SDS011;13410;52.114;5.718;2022-12-18T10:02:34;19.42;;;10.93;;
25503;SDS011;13410;52.114;5.718;2022-12-18T10:05:04;18.33;;;8.82;;
25503;SDS011;13410;52.114;5.718;2022-12-18T10:10:31;22.17;;;10.45;;
25503;SDS011;13410;52.114;5.718;2022-12-18T10:13:22;17.33;;;9.45;;
25503;SDS011;13410;52.114;5.718;2022-12-18T10:16:08;17.42;;;9.70;;
25503;SDS011;13410;52.114;5.718;2022-12-18T10:19:12;18.63;;;9.25;;
25503;SDS011;13410;52.114;5.718;2022-12-18T10:27:10;38.85;;;18.40;;
25503;SDS011;13410;52.114;5.718;2022-12-18T10:29:44;27.00;;;14.10;;
25503;SDS011;13410;52.114;5.718;2022-12-18T10:32:13;44.78;;;24.40;;
25503;SDS011;13410;52.114;5.718;2022-12-18T10:34:44;22.70;;;12.45;;
25503;SDS011;13410;52.114;5.718;2022-12-18T10:37:15;22.60;;;12.52;;
25503;SDS011;13410;52.114;5.718;2022-12-18T10:40:31;19.27;;;11.00;;
25503;SDS011;13410;52.114;5.718;2022-12-18T10:42:34;18.20;;;10.50;;
25503;SDS011;13410;52.114;5.718;2022-12-18T10:45:01;20.48;;;11.50;;
25503;SDS011;13410;52.114;5.718;2022-12-18T10:50:19;19.13;;;11.20;;
25503;SDS011;13410;52.114;5.718;2022-12-18T10:52:54;20.00;;;11.18;;
25503;SDS011;13410;52.114;5.718;2022-12-18T10:55:31;20.42;;;10.32;;
25503;SDS011;13410;52.114;5.718;2022-12-18T10:58:16;17.60;;;9.93;;
25503;SDS011;13410;52.114;5.718;2022-12-18T11:01:04;20.90;;;10.68;;
25503;SDS011;13410;52.114;5.718;2022-12-18T11:06:33;21.27;;;10.90;;
25503;SDS011;13410;52.114;5.718;2022-12-18T11:09:20;18.42;;;9.45;;
25503;SDS011;13410;52.114;5.718;2022-12-18T11:11:50;20.75;;;10.82;;
25503;SDS011;13410;52.114;5.718;2022-12-18T11:14:22;18.55;;;10.63;;
25503;SDS011;13410;52.114;5.718;2022-12-18T11:16:55;114.93;;;60.03;;
25503;SDS011;13410;52.114;5.718;2022-12-18T11:21:59;222.07;;;84.72;;
25503;SDS011;13410;52.114;5.718;2022-12-18T11:24:30;50.00;;;23.42;;
25503;SDS011;13410;52.114;5.718;2022-12-18T11:27:00;18.77;;;11.20;;
25503;SDS011;13410;52.114;5.718;2022-12-18T11:29:32;19.42;;;10.20;;
25503;SDS011;13410;52.114;5.718;2022-12-18T11:34:45;18.20;;;10.20;;
25503;SDS011;13410;52.114;5.718;2022-12-18T11:37:13;21.30;;;10.93;;
25503;SDS011;13410;52.114;5.718;2022-12-18T11:39:45;19.45;;;10.60;;
25503;SDS011;13410;52.114;5.718;2022-12-18T11:42:50;19.38;;;10.10;;
25503;SDS011;13410;52.114;5.718;2022-12-18T11:48:13;24.15;;;12.45;;
25503;SDS011;13410;52.114;5.718;2022-12-18T11:50:56;18.13;;;9.88;;
25503;SDS011;13410;52.114;5.718;2022-12-18T11:53:24;21.30;;;11.30;;
25503;SDS011;13410;52.114;5.718;2022-12-18T11:58:55;23.73;;;13.93;;
25503;SDS011;13410;52.114;5.718;2022-12-18T12:01:46;22.48;;;11.18;;
25503;SDS011;13410;52.114;5.718;2022-12-18T12:09:56;20.27;;;11.57;;
25503;SDS011;13410;52.114;5.718;2022-12-18T12:12:49;21.55;;;12.15;;
25503;SDS011;13410;52.114;5.718;2022-12-18T12:15:46;25.70;;;14.00;;
25503;SDS011;13410;52.114;5.718;2022-12-18T12:21:41;28.08;;;17.20;;
25503;SDS011;13410;52.114;5.718;2022-12-18T12:27:17;19.73;;;10.90;;
25503;SDS011;13410;52.114;5.718;2022-12-18T12:35:44;19.65;;;11.10;;
25503;SDS011;13410;52.114;5.718;2022-12-18T12:38:34;22.85;;;12.50;;
25503;SDS011;13410;52.114;5.718;2022-12-18T12:41:23;24.40;;;12.87;;
25503;SDS011;13410;52.114;5.718;2022-12-18T12:44:16;24.25;;;12.93;;
25503;SDS011;13410;52.114;5.718;2022-12-18T12:46:46;23.08;;;13.38;;
25503;SDS011;13410;52.114;5.718;2022-12-18T12:49:22;25.23;;;13.70;;
25503;SDS011;13410;52.114;5.718;2022-12-18T12:52:14;27.77;;;14.15;;
25503;SDS011;13410;52.114;5.718;2022-12-18T12:54:42;22.67;;;12.27;;
25503;SDS011;13410;52.114;5.718;2022-12-18T12:57:10;26.95;;;13.00;;
25503;SDS011;13410;52.114;5.718;2022-12-18T12:59:44;22.48;;;12.18;;
25503;SDS011;13410;52.114;5.718;2022-12-18T13:02:18;22.30;;;12.63;;
25503;SDS011;13410;52.114;5.718;2022-12-18T13:04:52;39.65;;;19.45;;
25503;SDS011;13410;52.114;5.718;2022-12-18T13:07:45;31.52;;;17.80;;
25503;SDS011;13410;52.114;5.718;2022-12-18T13:15:43;24.70;;;13.05;;
25503;SDS011;13410;52.114;5.718;2022-12-18T13:18:15;24.50;;;13.50;;
25503;SDS011;13410;52.114;5.718;2022-12-18T13:23:26;42.38;;;20.58;;
25503;SDS011;13410;52.114;5.718;2022-12-18T13:26:42;120.97;;;42.20;;
25503;SDS011;13410;52.114;5.718;2022-12-18T13:31:57;93.60;;;36.10;;
25503;SDS011;13410;52.114;5.718;2022-12-18T13:34:22;157.85;;;77.88;;
25503;SDS011;13410;52.114;5.718;2022-12-18T13:36:49;72.00;;;38.10;;
25503;SDS011;13410;52.114;5.718;2022-12-18T13:41:44;40.72;;;24.33;;
25503;SDS011;13410;52.114;5.718;2022-12-18T13:44:24;31.65;;;18.65;;
25503;SDS011;13410;52.114;5.718;2022-12-18T13:46:58;22.30;;;12.30;;
25503;SDS011;13410;52.114;5.718;2022-12-18T13:49:31;26.73;;;14.23;;
25503;SDS011;13410;52.114;5.718;2022-12-18T13:52:03;22.15;;;13.02;;
25503;SDS011;13410;52.114;5.718;2022-12-18T13:54:50;21.35;;;11.82;;
25503;SDS011;13410;52.114;5.718;2022-12-18T13:57:34;24.38;;;13.65;;
25503;SDS011;13410;52.114;5.718;2022-12-18T14:02:47;25.42;;;14.02;;
25503;SDS011;13410;52.114;5.718;2022-12-18T14:05:27;22.58;;;12.00;;
25503;SDS011;13410;52.114;5.718;2022-12-18T14:07:55;39.63;;;19.38;;
25503;SDS011;13410;52.114;5.718;2022-12-18T14:10:26;24.77;;;12.80;;
25503;SDS011;13410;52.114;5.718;2022-12-18T14:12:52;32.78;;;16.10;;
25503;SDS011;13410;52.114;5.718;2022-12-18T14:15:24;47.47;;;20.88;;
25503;SDS011;13410;52.114;5.718;2022-12-18T14:17:52;51.15;;;22.10;;
25503;SDS011;13410;52.114;5.718;2022-12-18T14:20:24;45.85;;;20.20;;
25503;SDS011;13410;52.114;5.718;2022-12-18T14:22:55;112.45;;;38.08;;
25503;SDS011;13410;52.114;5.718;2022-12-18T14:25:22;43.67;;;17.90;;
25503;SDS011;13410;52.114;5.718;2022-12-18T14:27:52;81.65;;;27.38;;
25503;SDS011;13410;52.114;5.718;2022-12-18T14:30:54;38.03;;;15.93;;
25503;SDS011;13410;52.114;5.718;2022-12-18T14:33:22;33.13;;;14.60;;
25503;SDS011;13410;52.114;5.718;2022-12-18T14:35:59;20.55;;;11.02;;
25503;SDS011;13410;52.114;5.718;2022-12-18T14:38:30;24.63;;;11.52;;
25503;SDS011;13410;52.114;5.718;2022-12-18T14:41:01;24.40;;;12.07;;
25503;SDS011;13410;52.114;5.718;2022-12-18T14:43:33;23.42;;;10.52;;
25503;SDS011;13410;52.114;5.718;2022-12-18T14:51:03;22.55;;;12.10;;
25503;SDS011;13410;52.114;5.718;2022-12-18T14:53:32;21.90;;;11.98;;
25503;SDS011;13410;52.114;5.718;2022-12-18T14:56:00;22.43;;;12.30;;
25503;SDS011;13410;52.114;5.718;2022-12-18T14:58:27;63.05;;;28.73;;
25503;SDS011;13410;52.114;5.718;2022-12-18T15:00:53;27.17;;;13.68;;
25503;SDS011;13410;52.114;5.718;2022-12-18T15:03:20;21.65;;;11.43;;
25503;SDS011;13410;52.114;5.718;2022-12-18T15:05:46;31.95;;;16.17;;
25503;SDS011;13410;52.114;5.718;2022-12-18T15:11:32;25.92;;;13.38;;
25503;SDS011;13410;52.114;5.718;2022-12-18T15:14:21;34.22;;;17.73;;
25503;SDS011;13410;52.114;5.718;2022-12-18T15:16:51;28.38;;;14.63;;
25503;SDS011;13410;52.114;5.718;2022-12-18T15:19:18;31.25;;;17.05;;
25503;SDS011;13410;52.114;5.718;2022-12-18T15:21:45;27.25;;;13.50;;
25503;SDS011;13410;52.114;5.718;2022-12-18T15:24:16;26.42;;;13.98;;
25503;SDS011;13410;52.114;5.718;2022-12-18T15:26:43;27.67;;;15.20;;
25503;SDS011;13410;52.114;5.718;2022-12-18T15:29:19;27.63;;;15.57;;
25503;SDS011;13410;52.114;5.718;2022-12-18T15:31:58;32.30;;;14.85;;
25503;SDS011;13410;52.114;5.718;2022-12-18T15:34:25;27.92;;;14.48;;
25503;SDS011;13410;52.114;5.718;2022-12-18T15:36:52;28.00;;;14.90;;
25503;SDS011;13410;52.114;5.718;2022-12-18T15:39:17;61.90;;;28.75;;
25503;SDS011;13410;52.114;5.718;2022-12-18T15:41:43;101.00;;;39.80;;
25503;SDS011;13410;52.114;5.718;2022-12-18T15:44:29;56.03;;;21.60;;
25503;SDS011;13410;52.114;5.718;2022-12-18T15:46:58;85.90;;;38.78;;
25503;SDS011;13410;52.114;5.718;2022-12-18T15:49:23;52.55;;;24.90;;
25503;SDS011;13410;52.114;5.718;2022-12-18T15:51:51;56.10;;;28.50;;
25503;SDS011;13410;52.114;5.718;2022-12-18T15:54:19;43.00;;;24.85;;
25503;SDS011;13410;52.114;5.718;2022-12-18T15:57:24;46.22;;;27.40;;
25503;SDS011;13410;52.114;5.718;2022-12-18T15:59:51;25.40;;;14.68;;
25503;SDS011;13410;52.114;5.718;2022-12-18T16:02:18;31.52;;;17.60;;
25503;SDS011;13410;52.114;5.718;2022-12-18T16:04:44;24.80;;;13.45;;
25503;SDS011;13410;52.114;5.718;2022-12-18T16:07:10;24.90;;;14.07;;
25503;SDS011;13410;52.114;5.718;2022-12-18T16:09:37;31.13;;;15.13;;
25503;SDS011;13410;52.114;5.718;2022-12-18T16:12:03;32.78;;;18.30;;
25503;SDS011;13410;52.114;5.718;2022-12-18T16:14:30;29.30;;;16.70;;